sensor_id;sensor_type;location;lat;lon;timestamp;temperature;humidity
64715;DHT22;51144;53.002;6.506;2023-04-25T00:00:27;6.70;99.90
64715;DHT22;51144;53.002;6.506;2023-04-25T00:02:53;6.70;99.90
64715;DHT22;51144;53.002;6.506;2023-04-25T00:05:18;6.70;99.90
64715;DHT22;51144;53.002;6.506;2023-04-25T00:07:45;6.60;99.90
64715;DHT22;51144;53.002;6.506;2023-04-25T00:10:11;6.70;99.90
64715;DHT22;51144;53.002;6.506;2023-04-25T00:12:37;6.70;99.90
64715;DHT22;51144;53.002;6.506;2023-04-25T00:15:04;6.70;99.90
64715;DHT22;51144;53.002;6.506;2023-04-25T00:17:30;6.70;99.90
64715;DHT22;51144;53.002;6.506;2023-04-25T00:19:56;6.70;99.90
64715;DHT22;51144;53.002;6.506;2023-04-25T00:22:23;6.70;99.90
64715;DHT22;51144;53.002;6.506;2023-04-25T00:24:49;6.70;99.90
64715;DHT22;51144;53.002;6.506;2023-04-25T00:27:15;6.60;99.90
64715;DHT22;51144;53.002;6.506;2023-04-25T00:29:41;6.60;99.90
64715;DHT22;51144;53.002;6.506;2023-04-25T00:32:07;6.50;99.90
64715;DHT22;51144;53.002;6.506;2023-04-25T00:34:32;6.40;99.90
64715;DHT22;51144;53.002;6.506;2023-04-25T00:36:58;6.30;99.90
64715;DHT22;51144;53.002;6.506;2023-04-25T00:39:27;6.30;99.90
64715;DHT22;51144;53.002;6.506;2023-04-25T00:41:54;6.20;99.90
64715;DHT22;51144;53.002;6.506;2023-04-25T00:44:20;6.20;99.90
64715;DHT22;51144;53.002;6.506;2023-04-25T00:46:47;6.10;99.90
64715;DHT22;51144;53.002;6.506;2023-04-25T00:49:14;6.10;99.90
64715;DHT22;51144;53.002;6.506;2023-04-25T00:51:42;6.10;99.90
64715;DHT22;51144;53.002;6.506;2023-04-25T00:54:10;6.10;99.90
64715;DHT22;51144;53.002;6.506;2023-04-25T00:56:36;6.10;99.90
64715;DHT22;51144;53.002;6.506;2023-04-25T00:59:01;6.10;99.90
64715;DHT22;51144;53.002;6.506;2023-04-25T01:01:27;6.10;99.90
64715;DHT22;51144;53.002;6.506;2023-04-25T01:03:53;6.00;99.90
64715;DHT22;51144;53.002;6.506;2023-04-25T01:06:19;6.00;99.90
64715;DHT22;51144;53.002;6.506;2023-04-25T01:08:45;5.90;99.90
64715;DHT22;51144;53.002;6.506;2023-04-25T01:11:11;5.90;99.90
64715;DHT22;51144;53.002;6.506;2023-04-25T01:13:36;5.80;99.90
64715;DHT22;51144;53.002;6.506;2023-04-25T01:16:02;5.80;99.90
64715;DHT22;51144;53.002;6.506;2023-04-25T01:18:28;5.70;99.90
64715;DHT22;51144;53.002;6.506;2023-04-25T01:20:54;5.70;99.90
64715;DHT22;51144;53.002;6.506;2023-04-25T01:23:21;5.70;99.90
64715;DHT22;51144;53.002;6.506;2023-04-25T01:25:48;5.70;99.90
64715;DHT22;51144;53.002;6.506;2023-04-25T01:28:14;5.60;99.90
64715;DHT22;51144;53.002;6.506;2023-04-25T01:30:42;5.60;99.90
64715;DHT22;51144;53.002;6.506;2023-04-25T01:33:09;5.60;99.90
64715;DHT22;51144;53.002;6.506;2023-04-25T01:35:35;5.70;99.90
64715;DHT22;51144;53.002;6.506;2023-04-25T01:38:01;5.70;99.90
64715;DHT22;51144;53.002;6.506;2023-04-25T01:40:27;5.70;99.90
64715;DHT22;51144;53.002;6.506;2023-04-25T01:42:53;5.70;99.90
64715;DHT22;51144;53.002;6.506;2023-04-25T01:45:20;5.70;99.90
64715;DHT22;51144;53.002;6.506;2023-04-25T01:47:46;5.70;99.90
64715;DHT22;51144;53.002;6.506;2023-04-25T01:50:16;5.70;99.90
64715;DHT22;51144;53.002;6.506;2023-04-25T01:52:42;5.70;99.90
64715;DHT22;51144;53.002;6.506;2023-04-25T01:55:08;5.70;99.90
64715;DHT22;51144;53.002;6.506;2023-04-25T01:57:34;5.70;99.90
64715;DHT22;51144;53.002;6.506;2023-04-25T02:00:03;5.70;99.90
64715;DHT22;51144;53.002;6.506;2023-04-25T02:02:30;5.80;99.90
64715;DHT22;51144;53.002;6.506;2023-04-25T02:04:55;5.80;99.90
64715;DHT22;51144;53.002;6.506;2023-04-25T02:07:21;5.80;99.90
64715;DHT22;51144;53.002;6.506;2023-04-25T02:09:47;5.80;99.90
64715;DHT22;51144;53.002;6.506;2023-04-25T02:12:13;5.80;99.90
64715;DHT22;51144;53.002;6.506;2023-04-25T02:14:38;5.80;99.90
64715;DHT22;51144;53.002;6.506;2023-04-25T02:17:04;5.80;99.90
64715;DHT22;51144;53.002;6.506;2023-04-25T02:19:31;5.70;99.90
64715;DHT22;51144;53.002;6.506;2023-04-25T02:21:56;5.70;99.90
64715;DHT22;51144;53.002;6.506;2023-04-25T02:24:22;5.70;99.90
64715;DHT22;51144;53.002;6.506;2023-04-25T02:26:48;5.70;99.90
64715;DHT22;51144;53.002;6.506;2023-04-25T02:29:15;5.70;99.90
64715;DHT22;51144;53.002;6.506;2023-04-25T02:31:41;5.70;99.90
64715;DHT22;51144;53.002;6.506;2023-04-25T02:34:06;5.70;99.90
64715;DHT22;51144;53.002;6.506;2023-04-25T02:36:32;5.70;99.90
64715;DHT22;51144;53.002;6.506;2023-04-25T02:39:00;5.70;99.90
64715;DHT22;51144;53.002;6.506;2023-04-25T02:41:26;5.70;99.90
64715;DHT22;51144;53.002;6.506;2023-04-25T02:43:52;5.70;99.90
64715;DHT22;51144;53.002;6.506;2023-04-25T02:46:18;5.70;99.90
64715;DHT22;51144;53.002;6.506;2023-04-25T02:48:43;5.80;99.90
64715;DHT22;51144;53.002;6.506;2023-04-25T02:51:09;5.70;99.90
64715;DHT22;51144;53.002;6.506;2023-04-25T02:53:35;5.70;99.90
64715;DHT22;51144;53.002;6.506;2023-04-25T02:56:01;5.70;99.90
64715;DHT22;51144;53.002;6.506;2023-04-25T02:58:27;5.70;99.90
64715;DHT22;51144;53.002;6.506;2023-04-25T03:00:52;5.70;99.90
64715;DHT22;51144;53.002;6.506;2023-04-25T03:03:18;5.70;99.90
64715;DHT22;51144;53.002;6.506;2023-04-25T03:05:50;5.70;99.90
64715;DHT22;51144;53.002;6.506;2023-04-25T03:08:16;5.70;99.90
64715;DHT22;51144;53.002;6.506;2023-04-25T03:10:42;5.70;99.90
64715;DHT22;51144;53.002;6.506;2023-04-25T03:13:07;5.70;99.90
64715;DHT22;51144;53.002;6.506;2023-04-25T03:15:33;5.70;99.90
64715;DHT22;51144;53.002;6.506;2023-04-25T03:17:59;5.70;99.90
64715;DHT22;51144;53.002;6.506;2023-04-25T03:20:24;5.70;99.90
64715;DHT22;51144;53.002;6.506;2023-04-25T03:22:50;5.70;99.90
64715;DHT22;51144;53.002;6.506;2023-04-25T03:25:15;5.60;99.90
64715;DHT22;51144;53.002;6.506;2023-04-25T03:27:41;5.60;99.90
64715;DHT22;51144;53.002;6.506;2023-04-25T03:30:07;5.50;99.90
64715;DHT22;51144;53.002;6.506;2023-04-25T03:32:34;5.50;99.90
64715;DHT22;51144;53.002;6.506;2023-04-25T03:34:59;5.40;99.90
64715;DHT22;51144;53.002;6.506;2023-04-25T03:37:25;5.40;99.90
64715;DHT22;51144;53.002;6.506;2023-04-25T03:39:50;5.40;99.90
64715;DHT22;51144;53.002;6.506;2023-04-25T03:42:16;5.30;99.90
64715;DHT22;51144;53.002;6.506;2023-04-25T03:44:43;5.30;99.90
64715;DHT22;51144;53.002;6.506;2023-04-25T03:47:08;5.30;99.90
64715;DHT22;51144;53.002;6.506;2023-04-25T03:49:34;5.20;99.90
64715;DHT22;51144;53.002;6.506;2023-04-25T03:52:01;5.20;99.90
64715;DHT22;51144;53.002;6.506;2023-04-25T03:54:26;5.20;99.90
64715;DHT22;51144;53.002;6.506;2023-04-25T03:56:52;5.20;99.90
64715;DHT22;51144;53.002;6.506;2023-04-25T03:59:17;5.20;99.90
64715;DHT22;51144;53.002;6.506;2023-04-25T04:01:43;5.10;99.90
64715;DHT22;51144;53.002;6.506;2023-04-25T04:04:09;5.10;99.90
64715;DHT22;51144;53.002;6.506;2023-04-25T04:06:34;5.10;99.90
64715;DHT22;51144;53.002;6.506;2023-04-25T04:09:00;5.10;99.90
64715;DHT22;51144;53.002;6.506;2023-04-25T04:11:25;5.10;99.90
64715;DHT22;51144;53.002;6.506;2023-04-25T04:13:51;5.00;99.90
64715;DHT22;51144;53.002;6.506;2023-04-25T04:16:17;5.00;99.90
64715;DHT22;51144;53.002;6.506;2023-04-25T04:18:45;5.00;99.90
64715;DHT22;51144;53.002;6.506;2023-04-25T04:21:10;5.00;99.90
64715;DHT22;51144;53.002;6.506;2023-04-25T04:23:36;4.90;99.90
64715;DHT22;51144;53.002;6.506;2023-04-25T04:26:03;4.90;99.90
64715;DHT22;51144;53.002;6.506;2023-04-25T04:28:28;4.90;99.90
64715;DHT22;51144;53.002;6.506;2023-04-25T04:30:54;4.90;99.90
64715;DHT22;51144;53.002;6.506;2023-04-25T04:33:21;4.90;99.90
64715;DHT22;51144;53.002;6.506;2023-04-25T04:35:47;5.00;99.90
64715;DHT22;51144;53.002;6.506;2023-04-25T04:38:13;5.00;99.90
64715;DHT22;51144;53.002;6.506;2023-04-25T04:40:41;5.00;99.90
64715;DHT22;51144;53.002;6.506;2023-04-25T04:43:09;5.10;99.90
64715;DHT22;51144;53.002;6.506;2023-04-25T04:45:36;5.10;99.90
64715;DHT22;51144;53.002;6.506;2023-04-25T04:48:05;5.10;99.90
64715;DHT22;51144;53.002;6.506;2023-04-25T04:50:31;5.10;99.90
64715;DHT22;51144;53.002;6.506;2023-04-25T04:52:58;5.10;99.90
64715;DHT22;51144;53.002;6.506;2023-04-25T04:55:23;5.20;99.90
64715;DHT22;51144;53.002;6.506;2023-04-25T04:57:49;5.20;99.90
64715;DHT22;51144;53.002;6.506;2023-04-25T05:00:15;5.20;99.90
64715;DHT22;51144;53.002;6.506;2023-04-25T05:02:41;5.40;99.90
64715;DHT22;51144;53.002;6.506;2023-04-25T05:05:07;5.40;99.90
64715;DHT22;51144;53.002;6.506;2023-04-25T05:07:33;5.50;99.90
64715;DHT22;51144;53.002;6.506;2023-04-25T05:09:59;5.60;99.90
64715;DHT22;51144;53.002;6.506;2023-04-25T05:12:25;5.70;99.90
64715;DHT22;51144;53.002;6.506;2023-04-25T05:14:50;6.00;99.90
64715;DHT22;51144;53.002;6.506;2023-04-25T05:17:16;6.20;99.90
64715;DHT22;51144;53.002;6.506;2023-04-25T05:19:41;6.40;99.90
64715;DHT22;51144;53.002;6.506;2023-04-25T05:22:07;6.70;99.90
64715;DHT22;51144;53.002;6.506;2023-04-25T05:24:33;7.10;99.90
64715;DHT22;51144;53.002;6.506;2023-04-25T05:26:58;7.40;99.90
64715;DHT22;51144;53.002;6.506;2023-04-25T05:29:24;7.60;99.90
64715;DHT22;51144;53.002;6.506;2023-04-25T05:31:50;7.70;99.90
64715;DHT22;51144;53.002;6.506;2023-04-25T05:34:15;7.70;99.90
64715;DHT22;51144;53.002;6.506;2023-04-25T05:36:42;7.50;99.90
64715;DHT22;51144;53.002;6.506;2023-04-25T05:39:07;7.20;99.90
64715;DHT22;51144;53.002;6.506;2023-04-25T05:41:34;7.00;99.90
64715;DHT22;51144;53.002;6.506;2023-04-25T05:43:59;6.70;99.90
64715;DHT22;51144;53.002;6.506;2023-04-25T05:46:25;6.50;99.90
64715;DHT22;51144;53.002;6.506;2023-04-25T05:48:51;6.40;99.90
64715;DHT22;51144;53.002;6.506;2023-04-25T05:51:16;6.40;99.90
64715;DHT22;51144;53.002;6.506;2023-04-25T05:53:44;6.70;99.90
64715;DHT22;51144;53.002;6.506;2023-04-25T05:56:10;7.10;99.90
64715;DHT22;51144;53.002;6.506;2023-04-25T05:58:35;7.50;99.90
64715;DHT22;51144;53.002;6.506;2023-04-25T06:01:01;8.20;99.90
64715;DHT22;51144;53.002;6.506;2023-04-25T06:03:28;8.40;99.90
64715;DHT22;51144;53.002;6.506;2023-04-25T06:05:53;8.90;99.90
64715;DHT22;51144;53.002;6.506;2023-04-25T06:08:19;9.00;99.90
64715;DHT22;51144;53.002;6.506;2023-04-25T06:10:45;8.90;99.90
64715;DHT22;51144;53.002;6.506;2023-04-25T06:13:10;9.10;99.90
64715;DHT22;51144;53.002;6.506;2023-04-25T06:15:36;9.30;99.90
64715;DHT22;51144;53.002;6.506;2023-04-25T06:18:01;9.50;99.90
64715;DHT22;51144;53.002;6.506;2023-04-25T06:20:27;9.70;99.90
64715;DHT22;51144;53.002;6.506;2023-04-25T06:22:53;9.80;99.90
64715;DHT22;51144;53.002;6.506;2023-04-25T06:25:19;9.70;99.90
64715;DHT22;51144;53.002;6.506;2023-04-25T06:27:45;9.70;99.90
64715;DHT22;51144;53.002;6.506;2023-04-25T06:30:11;9.80;99.90
64715;DHT22;51144;53.002;6.506;2023-04-25T06:32:38;9.50;99.90
64715;DHT22;51144;53.002;6.506;2023-04-25T06:35:04;9.10;99.90
64715;DHT22;51144;53.002;6.506;2023-04-25T06:37:30;8.20;99.90
64715;DHT22;51144;53.002;6.506;2023-04-25T06:39:56;7.80;99.90
64715;DHT22;51144;53.002;6.506;2023-04-25T06:42:22;7.50;99.90
64715;DHT22;51144;53.002;6.506;2023-04-25T06:44:47;7.40;99.90
64715;DHT22;51144;53.002;6.506;2023-04-25T06:47:14;7.20;99.90
64715;DHT22;51144;53.002;6.506;2023-04-25T06:49:39;7.30;99.90
64715;DHT22;51144;53.002;6.506;2023-04-25T06:52:05;7.40;99.90
64715;DHT22;51144;53.002;6.506;2023-04-25T06:54:31;7.80;99.90
64715;DHT22;51144;53.002;6.506;2023-04-25T06:56:56;8.60;99.90
64715;DHT22;51144;53.002;6.506;2023-04-25T06:59:22;9.30;99.90
64715;DHT22;51144;53.002;6.506;2023-04-25T07:01:48;9.90;99.90
64715;DHT22;51144;53.002;6.506;2023-04-25T07:04:13;10.20;99.90
64715;DHT22;51144;53.002;6.506;2023-04-25T07:06:39;10.00;99.90
64715;DHT22;51144;53.002;6.506;2023-04-25T07:09:11;9.60;99.90
64715;DHT22;51144;53.002;6.506;2023-04-25T07:11:37;9.00;99.90
64715;DHT22;51144;53.002;6.506;2023-04-25T07:14:02;8.60;99.90
64715;DHT22;51144;53.002;6.506;2023-04-25T07:16:28;8.30;99.90
64715;DHT22;51144;53.002;6.506;2023-04-25T07:18:54;8.10;99.90
64715;DHT22;51144;53.002;6.506;2023-04-25T07:21:19;8.20;99.90
64715;DHT22;51144;53.002;6.506;2023-04-25T07:23:45;8.50;99.90
64715;DHT22;51144;53.002;6.506;2023-04-25T07:26:11;8.80;99.90
64715;DHT22;51144;53.002;6.506;2023-04-25T07:28:36;8.60;99.90
64715;DHT22;51144;53.002;6.506;2023-04-25T07:31:02;8.50;99.90
64715;DHT22;51144;53.002;6.506;2023-04-25T07:33:28;8.60;99.90
64715;DHT22;51144;53.002;6.506;2023-04-25T07:35:54;8.90;99.90
64715;DHT22;51144;53.002;6.506;2023-04-25T07:38:21;9.40;99.90
64715;DHT22;51144;53.002;6.506;2023-04-25T07:40:47;9.50;99.90
64715;DHT22;51144;53.002;6.506;2023-04-25T07:43:13;10.00;99.90
64715;DHT22;51144;53.002;6.506;2023-04-25T07:45:42;10.30;99.90
64715;DHT22;51144;53.002;6.506;2023-04-25T07:48:08;10.40;99.90
64715;DHT22;51144;53.002;6.506;2023-04-25T07:50:33;9.80;99.90
64715;DHT22;51144;53.002;6.506;2023-04-25T07:52:59;9.60;99.90
64715;DHT22;51144;53.002;6.506;2023-04-25T07:55:24;9.20;99.90
64715;DHT22;51144;53.002;6.506;2023-04-25T07:57:50;8.60;99.90
64715;DHT22;51144;53.002;6.506;2023-04-25T08:00:16;8.10;99.90
64715;DHT22;51144;53.002;6.506;2023-04-25T08:02:42;7.90;99.90
64715;DHT22;51144;53.002;6.506;2023-04-25T08:05:08;7.70;99.90
64715;DHT22;51144;53.002;6.506;2023-04-25T08:07:37;7.60;99.90
64715;DHT22;51144;53.002;6.506;2023-04-25T08:10:05;7.80;99.90
64715;DHT22;51144;53.002;6.506;2023-04-25T08:12:31;7.90;99.90
64715;DHT22;51144;53.002;6.506;2023-04-25T08:14:56;7.80;99.90
64715;DHT22;51144;53.002;6.506;2023-04-25T08:17:22;7.90;99.90
64715;DHT22;51144;53.002;6.506;2023-04-25T08:19:48;8.20;99.90
64715;DHT22;51144;53.002;6.506;2023-04-25T08:22:14;8.40;99.90
64715;DHT22;51144;53.002;6.506;2023-04-25T08:24:40;9.00;99.90
64715;DHT22;51144;53.002;6.506;2023-04-25T08:27:06;9.70;99.90
64715;DHT22;51144;53.002;6.506;2023-04-25T08:29:33;10.30;99.90
64715;DHT22;51144;53.002;6.506;2023-04-25T08:31:59;10.60;99.90
64715;DHT22;51144;53.002;6.506;2023-04-25T08:34:25;11.00;99.90
64715;DHT22;51144;53.002;6.506;2023-04-25T08:36:51;11.20;99.90
64715;DHT22;51144;53.002;6.506;2023-04-25T08:39:17;11.30;99.90
64715;DHT22;51144;53.002;6.506;2023-04-25T08:41:42;10.60;99.90
64715;DHT22;51144;53.002;6.506;2023-04-25T08:44:10;10.60;99.90
64715;DHT22;51144;53.002;6.506;2023-04-25T08:46:40;10.50;99.90
64715;DHT22;51144;53.002;6.506;2023-04-25T08:49:08;10.40;99.90
64715;DHT22;51144;53.002;6.506;2023-04-25T08:51:46;10.50;99.90
64715;DHT22;51144;53.002;6.506;2023-04-25T08:54:14;10.10;99.90
64715;DHT22;51144;53.002;6.506;2023-04-25T08:56:43;9.80;99.90
64715;DHT22;51144;53.002;6.506;2023-04-25T08:59:10;9.60;99.90
64715;DHT22;51144;53.002;6.506;2023-04-25T09:01:36;9.50;99.90
64715;DHT22;51144;53.002;6.506;2023-04-25T09:04:02;9.50;99.90
64715;DHT22;51144;53.002;6.506;2023-04-25T09:06:31;9.00;99.90
64715;DHT22;51144;53.002;6.506;2023-04-25T09:09:07;8.80;99.90
64715;DHT22;51144;53.002;6.506;2023-04-25T09:11:35;8.50;99.90
64715;DHT22;51144;53.002;6.506;2023-04-25T09:14:20;8.30;99.90
64715;DHT22;51144;53.002;6.506;2023-04-25T09:19:25;8.20;99.90
64715;DHT22;51144;53.002;6.506;2023-04-25T09:21:51;8.30;99.90
64715;DHT22;51144;53.002;6.506;2023-04-25T09:24:37;8.50;99.90
64715;DHT22;51144;53.002;6.506;2023-04-25T09:27:11;9.10;99.90
64715;DHT22;51144;53.002;6.506;2023-04-25T09:29:38;9.50;99.90
64715;DHT22;51144;53.002;6.506;2023-04-25T09:32:31;9.90;99.90
64715;DHT22;51144;53.002;6.506;2023-04-25T09:34:57;10.50;99.90
64715;DHT22;51144;53.002;6.506;2023-04-25T09:37:27;10.90;99.90
64715;DHT22;51144;53.002;6.506;2023-04-25T09:39:57;11.10;99.90
64715;DHT22;51144;53.002;6.506;2023-04-25T09:42:30;11.20;99.90
64715;DHT22;51144;53.002;6.506;2023-04-25T09:44:57;11.40;99.90
64715;DHT22;51144;53.002;6.506;2023-04-25T09:47:26;11.50;99.90
64715;DHT22;51144;53.002;6.506;2023-04-25T09:49:54;12.10;99.90
64715;DHT22;51144;53.002;6.506;2023-04-25T09:52:22;12.30;99.90
64715;DHT22;51144;53.002;6.506;2023-04-25T09:54:49;11.80;99.90
64715;DHT22;51144;53.002;6.506;2023-04-25T09:57:17;11.50;99.90
64715;DHT22;51144;53.002;6.506;2023-04-25T10:02:15;8.60;99.90
64715;DHT22;51144;53.002;6.506;2023-04-25T10:04:42;8.70;99.90
64715;DHT22;51144;53.002;6.506;2023-04-25T10:07:11;8.50;99.90
64715;DHT22;51144;53.002;6.506;2023-04-25T10:09:38;8.80;99.90
64715;DHT22;51144;53.002;6.506;2023-04-25T10:12:08;9.60;99.90
64715;DHT22;51144;53.002;6.506;2023-04-25T10:14:35;10.50;99.90
64715;DHT22;51144;53.002;6.506;2023-04-25T10:17:01;11.40;99.90
64715;DHT22;51144;53.002;6.506;2023-04-25T10:19:28;11.80;99.90
64715;DHT22;51144;53.002;6.506;2023-04-25T10:22:08;12.20;99.90
64715;DHT22;51144;53.002;6.506;2023-04-25T10:24:35;12.30;99.90
64715;DHT22;51144;53.002;6.506;2023-04-25T10:27:02;12.90;99.90
64715;DHT22;51144;53.002;6.506;2023-04-25T10:29:28;13.30;99.90
64715;DHT22;51144;53.002;6.506;2023-04-25T10:31:54;13.30;99.90
64715;DHT22;51144;53.002;6.506;2023-04-25T10:34:24;13.00;99.90
64715;DHT22;51144;53.002;6.506;2023-04-25T10:36:52;12.10;99.90
64715;DHT22;51144;53.002;6.506;2023-04-25T10:39:26;11.70;99.90
64715;DHT22;51144;53.002;6.506;2023-04-25T10:41:57;11.00;99.90
64715;DHT22;51144;53.002;6.506;2023-04-25T10:44:23;11.40;99.90
64715;DHT22;51144;53.002;6.506;2023-04-25T10:46:51;11.40;99.90
64715;DHT22;51144;53.002;6.506;2023-04-25T10:49:37;10.70;99.90
64715;DHT22;51144;53.002;6.506;2023-04-25T10:52:25;9.70;99.90
64715;DHT22;51144;53.002;6.506;2023-04-25T10:54:55;9.60;99.90
64715;DHT22;51144;53.002;6.506;2023-04-25T10:57:27;9.30;99.90
64715;DHT22;51144;53.002;6.506;2023-04-25T10:59:59;9.10;99.90
64715;DHT22;51144;53.002;6.506;2023-04-25T11:02:27;9.10;99.90
64715;DHT22;51144;53.002;6.506;2023-04-25T11:04:54;9.60;99.90
64715;DHT22;51144;53.002;6.506;2023-04-25T11:07:46;10.20;99.90
64715;DHT22;51144;53.002;6.506;2023-04-25T11:10:09;11.00;99.90
64715;DHT22;51144;53.002;6.506;2023-04-25T11:12:35;11.40;99.90
64715;DHT22;51144;53.002;6.506;2023-04-25T11:15:03;10.50;99.90
64715;DHT22;51144;53.002;6.506;2023-04-25T11:17:29;10.00;99.90
64715;DHT22;51144;53.002;6.506;2023-04-25T11:19:55;9.80;99.90
64715;DHT22;51144;53.002;6.506;2023-04-25T11:22:22;9.30;99.90
64715;DHT22;51144;53.002;6.506;2023-04-25T11:24:48;9.00;99.90
64715;DHT22;51144;53.002;6.506;2023-04-25T11:27:13;9.10;99.90
64715;DHT22;51144;53.002;6.506;2023-04-25T11:29:39;9.20;99.90
64715;DHT22;51144;53.002;6.506;2023-04-25T11:32:04;9.40;99.90
64715;DHT22;51144;53.002;6.506;2023-04-25T11:34:31;9.90;99.90
64715;DHT22;51144;53.002;6.506;2023-04-25T11:36:58;10.70;99.90
64715;DHT22;51144;53.002;6.506;2023-04-25T11:39:25;11.30;99.90
64715;DHT22;51144;53.002;6.506;2023-04-25T11:41:52;11.60;99.90
64715;DHT22;51144;53.002;6.506;2023-04-25T11:44:19;11.90;99.90
64715;DHT22;51144;53.002;6.506;2023-04-25T11:46:45;12.20;99.90
64715;DHT22;51144;53.002;6.506;2023-04-25T11:49:12;12.20;99.90
64715;DHT22;51144;53.002;6.506;2023-04-25T11:51:41;12.00;99.90
64715;DHT22;51144;53.002;6.506;2023-04-25T11:54:08;11.80;99.90
64715;DHT22;51144;53.002;6.506;2023-04-25T11:56:34;11.30;99.90
64715;DHT22;51144;53.002;6.506;2023-04-25T11:59:04;11.00;99.90
64715;DHT22;51144;53.002;6.506;2023-04-25T12:01:32;10.40;99.90
64715;DHT22;51144;53.002;6.506;2023-04-25T12:04:09;9.80;99.90
64715;DHT22;51144;53.002;6.506;2023-04-25T12:06:37;10.00;99.90
64715;DHT22;51144;53.002;6.506;2023-04-25T12:09:08;9.90;99.90
64715;DHT22;51144;53.002;6.506;2023-04-25T12:11:54;10.40;99.90
64715;DHT22;51144;53.002;6.506;2023-04-25T12:14:23;11.20;99.90
64715;DHT22;51144;53.002;6.506;2023-04-25T12:16:50;12.00;99.90
64715;DHT22;51144;53.002;6.506;2023-04-25T12:19:17;11.80;99.90
64715;DHT22;51144;53.002;6.506;2023-04-25T12:21:43;11.00;99.90
64715;DHT22;51144;53.002;6.506;2023-04-25T12:29:16;10.00;99.90
64715;DHT22;51144;53.002;6.506;2023-04-25T12:31:42;9.70;99.90
64715;DHT22;51144;53.002;6.506;2023-04-25T12:34:08;9.60;99.90
64715;DHT22;51144;53.002;6.506;2023-04-25T12:36:33;10.00;99.90
64715;DHT22;51144;53.002;6.506;2023-04-25T12:38:59;9.90;99.90
64715;DHT22;51144;53.002;6.506;2023-04-25T12:41:29;10.30;99.90
64715;DHT22;51144;53.002;6.506;2023-04-25T12:43:55;10.40;99.90
64715;DHT22;51144;53.002;6.506;2023-04-25T12:46:21;10.40;99.90
64715;DHT22;51144;53.002;6.506;2023-04-25T12:48:48;10.60;99.90
64715;DHT22;51144;53.002;6.506;2023-04-25T12:51:13;10.60;99.90
64715;DHT22;51144;53.002;6.506;2023-04-25T12:53:39;10.80;99.90
64715;DHT22;51144;53.002;6.506;2023-04-25T12:56:09;11.00;99.90
64715;DHT22;51144;53.002;6.506;2023-04-25T12:58:35;10.90;99.90
64715;DHT22;51144;53.002;6.506;2023-04-25T13:01:01;10.70;99.90
64715;DHT22;51144;53.002;6.506;2023-04-25T13:03:26;10.90;99.90
64715;DHT22;51144;53.002;6.506;2023-04-25T13:05:52;11.30;99.90
64715;DHT22;51144;53.002;6.506;2023-04-25T13:08:21;11.50;99.90
64715;DHT22;51144;53.002;6.506;2023-04-25T13:10:49;11.90;99.90
64715;DHT22;51144;53.002;6.506;2023-04-25T13:13:15;11.80;99.90
64715;DHT22;51144;53.002;6.506;2023-04-25T13:15:41;11.60;99.90
64715;DHT22;51144;53.002;6.506;2023-04-25T13:18:07;11.40;99.90
64715;DHT22;51144;53.002;6.506;2023-04-25T13:20:33;11.30;99.90
64715;DHT22;51144;53.002;6.506;2023-04-25T13:22:59;10.30;99.90
64715;DHT22;51144;53.002;6.506;2023-04-25T13:25:25;9.40;99.90
64715;DHT22;51144;53.002;6.506;2023-04-25T13:27:51;8.90;99.90
64715;DHT22;51144;53.002;6.506;2023-04-25T13:30:17;9.00;99.90
64715;DHT22;51144;53.002;6.506;2023-04-25T13:32:43;9.20;99.90
64715;DHT22;51144;53.002;6.506;2023-04-25T13:35:10;9.40;99.90
64715;DHT22;51144;53.002;6.506;2023-04-25T13:37:38;10.20;99.90
64715;DHT22;51144;53.002;6.506;2023-04-25T13:40:06;10.40;99.90
64715;DHT22;51144;53.002;6.506;2023-04-25T13:42:34;10.50;99.90
64715;DHT22;51144;53.002;6.506;2023-04-25T13:45:00;10.30;99.90
64715;DHT22;51144;53.002;6.506;2023-04-25T13:47:26;10.30;99.90
64715;DHT22;51144;53.002;6.506;2023-04-25T13:49:52;9.80;99.90
64715;DHT22;51144;53.002;6.506;2023-04-25T13:52:18;9.80;99.90
64715;DHT22;51144;53.002;6.506;2023-04-25T13:54:43;9.80;99.90
64715;DHT22;51144;53.002;6.506;2023-04-25T13:57:09;9.50;99.90
64715;DHT22;51144;53.002;6.506;2023-04-25T13:59:37;9.40;99.90
64715;DHT22;51144;53.002;6.506;2023-04-25T14:02:02;9.70;99.90
64715;DHT22;51144;53.002;6.506;2023-04-25T14:04:28;9.80;99.90
64715;DHT22;51144;53.002;6.506;2023-04-25T14:06:54;10.60;99.90
64715;DHT22;51144;53.002;6.506;2023-04-25T14:09:20;11.10;99.90
64715;DHT22;51144;53.002;6.506;2023-04-25T14:11:54;11.30;99.90
64715;DHT22;51144;53.002;6.506;2023-04-25T14:14:20;11.20;99.90
64715;DHT22;51144;53.002;6.506;2023-04-25T14:16:47;11.00;99.90
64715;DHT22;51144;53.002;6.506;2023-04-25T14:19:17;11.10;99.90
64715;DHT22;51144;53.002;6.506;2023-04-25T14:21:43;10.90;99.90
64715;DHT22;51144;53.002;6.506;2023-04-25T14:24:09;10.40;99.90
64715;DHT22;51144;53.002;6.506;2023-04-25T14:26:36;11.20;99.90
64715;DHT22;51144;53.002;6.506;2023-04-25T14:29:03;12.30;99.90
64715;DHT22;51144;53.002;6.506;2023-04-25T14:31:28;13.00;99.90
64715;DHT22;51144;53.002;6.506;2023-04-25T14:33:54;12.70;99.90
64715;DHT22;51144;53.002;6.506;2023-04-25T14:36:21;12.90;99.90
64715;DHT22;51144;53.002;6.506;2023-04-25T14:38:47;12.80;99.90
64715;DHT22;51144;53.002;6.506;2023-04-25T14:41:13;13.00;99.90
64715;DHT22;51144;53.002;6.506;2023-04-25T14:43:39;12.10;99.90
64715;DHT22;51144;53.002;6.506;2023-04-25T14:46:08;11.80;99.90
64715;DHT22;51144;53.002;6.506;2023-04-25T14:48:34;11.30;99.90
64715;DHT22;51144;53.002;6.506;2023-04-25T14:51:00;10.90;99.90
64715;DHT22;51144;53.002;6.506;2023-04-25T14:53:26;11.10;99.90
64715;DHT22;51144;53.002;6.506;2023-04-25T14:55:52;10.60;99.90
64715;DHT22;51144;53.002;6.506;2023-04-25T14:58:19;10.40;99.90
64715;DHT22;51144;53.002;6.506;2023-04-25T15:00:46;10.60;99.90
64715;DHT22;51144;53.002;6.506;2023-04-25T15:03:12;10.70;99.90
64715;DHT22;51144;53.002;6.506;2023-04-25T15:05:39;10.90;99.90
64715;DHT22;51144;53.002;6.506;2023-04-25T15:08:05;10.80;99.30
64715;DHT22;51144;53.002;6.506;2023-04-25T15:10:31;10.70;99.10
64715;DHT22;51144;53.002;6.506;2023-04-25T15:12:56;10.70;99.90
64715;DHT22;51144;53.002;6.506;2023-04-25T15:15:22;10.70;99.90
64715;DHT22;51144;53.002;6.506;2023-04-25T15:17:49;10.80;99.90
64715;DHT22;51144;53.002;6.506;2023-04-25T15:20:14;10.70;99.90
64715;DHT22;51144;53.002;6.506;2023-04-25T15:22:41;10.60;99.90
64715;DHT22;51144;53.002;6.506;2023-04-25T15:25:09;10.70;99.90
64715;DHT22;51144;53.002;6.506;2023-04-25T15:27:35;10.40;99.90
64715;DHT22;51144;53.002;6.506;2023-04-25T15:30:13;10.10;99.90
64715;DHT22;51144;53.002;6.506;2023-04-25T15:32:42;10.10;99.90
64715;DHT22;51144;53.002;6.506;2023-04-25T15:35:08;9.50;99.90
64715;DHT22;51144;53.002;6.506;2023-04-25T15:37:35;9.40;99.90
64715;DHT22;51144;53.002;6.506;2023-04-25T15:40:13;9.50;99.90
64715;DHT22;51144;53.002;6.506;2023-04-25T15:42:40;9.60;99.90
64715;DHT22;51144;53.002;6.506;2023-04-25T15:45:08;9.70;99.90
64715;DHT22;51144;53.002;6.506;2023-04-25T15:47:35;10.00;99.90